sensor_id;sensor_type;location;lat;lon;timestamp;temperature;humidity
27128;DHT22;14660;49.008;8.390;2022-08-06T00:01:13;22.80;99.90
27128;DHT22;14660;49.008;8.390;2022-08-06T00:03:40;22.80;99.90
27128;DHT22;14660;49.008;8.390;2022-08-06T00:06:07;22.70;99.90
27128;DHT22;14660;49.008;8.390;2022-08-06T00:08:34;22.80;99.90
27128;DHT22;14660;49.008;8.390;2022-08-06T00:11:01;22.70;99.90
27128;DHT22;14660;49.008;8.390;2022-08-06T00:13:27;22.80;99.90
27128;DHT22;14660;49.008;8.390;2022-08-06T00:15:54;22.80;99.90
27128;DHT22;14660;49.008;8.390;2022-08-06T00:18:21;22.70;99.90
27128;DHT22;14660;49.008;8.390;2022-08-06T00:20:48;22.80;99.90
27128;DHT22;14660;49.008;8.390;2022-08-06T00:23:15;22.80;99.90
27128;DHT22;14660;49.008;8.390;2022-08-06T00:25:41;22.70;99.90
27128;DHT22;14660;49.008;8.390;2022-08-06T00:28:08;22.70;99.90
27128;DHT22;14660;49.008;8.390;2022-08-06T00:30:34;22.80;99.90
27128;DHT22;14660;49.008;8.390;2022-08-06T00:33:01;22.80;99.90
27128;DHT22;14660;49.008;8.390;2022-08-06T00:35:28;22.70;99.90
27128;DHT22;14660;49.008;8.390;2022-08-06T00:37:55;22.60;99.90
27128;DHT22;14660;49.008;8.390;2022-08-06T00:40:23;22.50;99.90
27128;DHT22;14660;49.008;8.390;2022-08-06T00:42:51;22.60;99.90
27128;DHT22;14660;49.008;8.390;2022-08-06T00:45:18;22.50;99.90
27128;DHT22;14660;49.008;8.390;2022-08-06T00:47:45;22.40;99.90
27128;DHT22;14660;49.008;8.390;2022-08-06T00:50:11;22.50;99.90
27128;DHT22;14660;49.008;8.390;2022-08-06T00:52:38;22.40;99.90
27128;DHT22;14660;49.008;8.390;2022-08-06T00:55:06;22.40;99.90
27128;DHT22;14660;49.008;8.390;2022-08-06T00:57:32;22.40;99.90
27128;DHT22;14660;49.008;8.390;2022-08-06T00:59:59;22.40;99.90
27128;DHT22;14660;49.008;8.390;2022-08-06T01:02:26;22.50;99.90
27128;DHT22;14660;49.008;8.390;2022-08-06T01:04:53;22.50;99.90
27128;DHT22;14660;49.008;8.390;2022-08-06T01:07:19;22.40;99.90
27128;DHT22;14660;49.008;8.390;2022-08-06T01:09:46;22.40;99.90
27128;DHT22;14660;49.008;8.390;2022-08-06T01:12:13;22.40;99.90
27128;DHT22;14660;49.008;8.390;2022-08-06T01:14:39;22.40;99.90
27128;DHT22;14660;49.008;8.390;2022-08-06T01:17:28;22.50;99.90
27128;DHT22;14660;49.008;8.390;2022-08-06T01:20:23;22.30;99.90
27128;DHT22;14660;49.008;8.390;2022-08-06T01:26:36;22.20;99.90
27128;DHT22;14660;49.008;8.390;2022-08-06T01:29:24;21.90;99.90
27128;DHT22;14660;49.008;8.390;2022-08-06T01:32:19;22.00;99.90
27128;DHT22;14660;49.008;8.390;2022-08-06T01:35:02;22.00;99.90
27128;DHT22;14660;49.008;8.390;2022-08-06T01:37:52;22.00;99.90
27128;DHT22;14660;49.008;8.390;2022-08-06T01:40:28;21.90;99.90
27128;DHT22;14660;49.008;8.390;2022-08-06T01:42:57;21.90;99.90
27128;DHT22;14660;49.008;8.390;2022-08-06T01:45:28;21.90;99.90
27128;DHT22;14660;49.008;8.390;2022-08-06T01:47:59;21.90;99.90
27128;DHT22;14660;49.008;8.390;2022-08-06T01:50:33;21.90;99.90
27128;DHT22;14660;49.008;8.390;2022-08-06T01:53:03;21.90;99.90
27128;DHT22;14660;49.008;8.390;2022-08-06T01:55:43;21.80;99.90
27128;DHT22;14660;49.008;8.390;2022-08-06T01:58:12;21.80;99.90
27128;DHT22;14660;49.008;8.390;2022-08-06T02:00:44;21.80;99.90
27128;DHT22;14660;49.008;8.390;2022-08-06T02:03:35;21.60;99.90
27128;DHT22;14660;49.008;8.390;2022-08-06T02:06:02;21.60;99.90
27128;DHT22;14660;49.008;8.390;2022-08-06T02:08:31;21.50;99.90
27128;DHT22;14660;49.008;8.390;2022-08-06T02:11:02;21.50;99.90
27128;DHT22;14660;49.008;8.390;2022-08-06T02:13:31;21.50;99.90
27128;DHT22;14660;49.008;8.390;2022-08-06T02:16:01;21.60;99.90
27128;DHT22;14660;49.008;8.390;2022-08-06T02:18:32;21.50;99.90
27128;DHT22;14660;49.008;8.390;2022-08-06T02:21:02;21.40;99.90
27128;DHT22;14660;49.008;8.390;2022-08-06T02:23:31;21.40;99.90
27128;DHT22;14660;49.008;8.390;2022-08-06T02:25:59;21.40;99.90
27128;DHT22;14660;49.008;8.390;2022-08-06T02:28:27;21.30;99.90
27128;DHT22;14660;49.008;8.390;2022-08-06T02:30:56;21.40;99.90
27128;DHT22;14660;49.008;8.390;2022-08-06T02:33:25;21.30;99.90
27128;DHT22;14660;49.008;8.390;2022-08-06T02:39:06;21.50;99.90
27128;DHT22;14660;49.008;8.390;2022-08-06T02:41:56;21.40;99.90
27128;DHT22;14660;49.008;8.390;2022-08-06T02:44:39;21.30;99.90
27128;DHT22;14660;49.008;8.390;2022-08-06T02:47:48;21.20;99.90
27128;DHT22;14660;49.008;8.390;2022-08-06T02:50:15;21.00;99.90
27128;DHT22;14660;49.008;8.390;2022-08-06T02:53:11;21.00;99.90
27128;DHT22;14660;49.008;8.390;2022-08-06T02:55:43;20.80;99.90
27128;DHT22;14660;49.008;8.390;2022-08-06T02:58:32;20.70;99.90
27128;DHT22;14660;49.008;8.390;2022-08-06T03:01:02;20.70;99.90
27128;DHT22;14660;49.008;8.390;2022-08-06T03:03:30;20.70;99.90
27128;DHT22;14660;49.008;8.390;2022-08-06T03:05:58;20.70;99.90
27128;DHT22;14660;49.008;8.390;2022-08-06T03:08:28;20.80;99.90
27128;DHT22;14660;49.008;8.390;2022-08-06T03:10:56;20.80;99.90
27128;DHT22;14660;49.008;8.390;2022-08-06T03:13:24;20.90;99.90
27128;DHT22;14660;49.008;8.390;2022-08-06T03:15:52;20.80;99.90
27128;DHT22;14660;49.008;8.390;2022-08-06T03:18:21;20.80;99.90
27128;DHT22;14660;49.008;8.390;2022-08-06T03:20:49;20.80;99.90
27128;DHT22;14660;49.008;8.390;2022-08-06T03:23:16;20.60;99.90
27128;DHT22;14660;49.008;8.390;2022-08-06T03:25:45;20.70;99.90
27128;DHT22;14660;49.008;8.390;2022-08-06T03:28:13;20.60;99.90
27128;DHT22;14660;49.008;8.390;2022-08-06T03:30:41;20.50;99.90
27128;DHT22;14660;49.008;8.390;2022-08-06T03:33:14;20.60;99.90
27128;DHT22;14660;49.008;8.390;2022-08-06T03:35:42;20.60;99.90
27128;DHT22;14660;49.008;8.390;2022-08-06T03:38:10;20.40;99.90
27128;DHT22;14660;49.008;8.390;2022-08-06T03:40:39;20.50;99.90
27128;DHT22;14660;49.008;8.390;2022-08-06T03:43:06;20.50;99.90
27128;DHT22;14660;49.008;8.390;2022-08-06T03:45:38;20.50;99.90
27128;DHT22;14660;49.008;8.390;2022-08-06T03:48:06;20.40;99.90
27128;DHT22;14660;49.008;8.390;2022-08-06T03:50:38;20.40;99.90
27128;DHT22;14660;49.008;8.390;2022-08-06T03:53:08;20.10;99.90
27128;DHT22;14660;49.008;8.390;2022-08-06T03:55:37;20.10;99.90
27128;DHT22;14660;49.008;8.390;2022-08-06T03:58:07;20.20;99.90
27128;DHT22;14660;49.008;8.390;2022-08-06T04:00:44;20.00;99.90
27128;DHT22;14660;49.008;8.390;2022-08-06T04:03:12;19.90;99.90
27128;DHT22;14660;49.008;8.390;2022-08-06T04:05:41;19.90;99.90
27128;DHT22;14660;49.008;8.390;2022-08-06T04:08:09;19.80;99.90
27128;DHT22;14660;49.008;8.390;2022-08-06T04:10:54;19.80;99.90
27128;DHT22;14660;49.008;8.390;2022-08-06T04:13:24;19.60;99.90
27128;DHT22;14660;49.008;8.390;2022-08-06T04:15:52;19.60;99.90
27128;DHT22;14660;49.008;8.390;2022-08-06T04:18:24;19.70;99.90
27128;DHT22;14660;49.008;8.390;2022-08-06T04:20:54;19.70;99.90
27128;DHT22;14660;49.008;8.390;2022-08-06T04:23:22;19.70;99.90
27128;DHT22;14660;49.008;8.390;2022-08-06T04:25:54;19.50;99.90
27128;DHT22;14660;49.008;8.390;2022-08-06T04:28:23;19.50;99.90
27128;DHT22;14660;49.008;8.390;2022-08-06T04:30:51;19.60;99.90
27128;DHT22;14660;49.008;8.390;2022-08-06T04:33:23;19.70;99.90
27128;DHT22;14660;49.008;8.390;2022-08-06T04:35:51;19.80;99.90
27128;DHT22;14660;49.008;8.390;2022-08-06T04:38:21;19.80;99.90
27128;DHT22;14660;49.008;8.390;2022-08-06T04:40:49;19.70;99.90
27128;DHT22;14660;49.008;8.390;2022-08-06T04:43:17;19.70;99.90
27128;DHT22;14660;49.008;8.390;2022-08-06T04:45:43;19.50;99.90
27128;DHT22;14660;49.008;8.390;2022-08-06T04:48:11;19.60;99.90
27128;DHT22;14660;49.008;8.390;2022-08-06T04:50:38;19.60;99.90
27128;DHT22;14660;49.008;8.390;2022-08-06T04:53:08;19.60;99.90
27128;DHT22;14660;49.008;8.390;2022-08-06T04:55:36;19.50;99.90
27128;DHT22;14660;49.008;8.390;2022-08-06T04:58:05;19.60;99.90
27128;DHT22;14660;49.008;8.390;2022-08-06T05:00:35;19.60;99.90
27128;DHT22;14660;49.008;8.390;2022-08-06T05:03:03;19.70;99.90
27128;DHT22;14660;49.008;8.390;2022-08-06T05:05:54;19.60;99.90
27128;DHT22;14660;49.008;8.390;2022-08-06T05:08:23;19.60;99.90
27128;DHT22;14660;49.008;8.390;2022-08-06T05:11:50;19.40;99.90
27128;DHT22;14660;49.008;8.390;2022-08-06T05:13:58;19.40;99.90
27128;DHT22;14660;49.008;8.390;2022-08-06T05:16:26;19.10;99.90
27128;DHT22;14660;49.008;8.390;2022-08-06T05:18:59;19.20;99.90
27128;DHT22;14660;49.008;8.390;2022-08-06T05:21:37;19.30;99.90
27128;DHT22;14660;49.008;8.390;2022-08-06T05:24:05;19.30;99.90
27128;DHT22;14660;49.008;8.390;2022-08-06T05:26:33;19.20;99.90
27128;DHT22;14660;49.008;8.390;2022-08-06T05:29:00;19.30;99.90
27128;DHT22;14660;49.008;8.390;2022-08-06T05:31:35;19.40;99.90
27128;DHT22;14660;49.008;8.390;2022-08-06T05:34:09;19.40;99.90
27128;DHT22;14660;49.008;8.390;2022-08-06T05:36:37;19.50;99.90
27128;DHT22;14660;49.008;8.390;2022-08-06T05:39:05;19.60;99.90
27128;DHT22;14660;49.008;8.390;2022-08-06T05:41:32;19.80;99.90
27128;DHT22;14660;49.008;8.390;2022-08-06T05:44:02;19.90;99.90
27128;DHT22;14660;49.008;8.390;2022-08-06T05:46:34;20.10;99.90
27128;DHT22;14660;49.008;8.390;2022-08-06T05:49:25;20.10;99.90
27128;DHT22;14660;49.008;8.390;2022-08-06T05:52:18;20.30;99.90
27128;DHT22;14660;49.008;8.390;2022-08-06T05:55:26;20.40;99.90
27128;DHT22;14660;49.008;8.390;2022-08-06T05:58:07;20.20;99.90
27128;DHT22;14660;49.008;8.390;2022-08-06T06:00:37;20.30;99.90
27128;DHT22;14660;49.008;8.390;2022-08-06T06:03:08;20.50;99.90
27128;DHT22;14660;49.008;8.390;2022-08-06T06:05:36;20.50;99.90
27128;DHT22;14660;49.008;8.390;2022-08-06T06:08:05;20.50;99.90
27128;DHT22;14660;49.008;8.390;2022-08-06T06:10:33;20.60;99.90
27128;DHT22;14660;49.008;8.390;2022-08-06T06:13:01;20.50;99.90
27128;DHT22;14660;49.008;8.390;2022-08-06T06:15:28;20.50;99.90
27128;DHT22;14660;49.008;8.390;2022-08-06T06:21:22;20.70;99.90
27128;DHT22;14660;49.008;8.390;2022-08-06T06:30:18;21.00;99.90
27128;DHT22;14660;49.008;8.390;2022-08-06T06:36:03;21.30;99.90
27128;DHT22;14660;49.008;8.390;2022-08-06T06:41:57;21.90;99.90
27128;DHT22;14660;49.008;8.390;2022-08-06T06:44:50;22.00;99.90
27128;DHT22;14660;49.008;8.390;2022-08-06T06:50:23;22.10;99.90
27128;DHT22;14660;49.008;8.390;2022-08-06T06:52:53;22.00;99.90
27128;DHT22;14660;49.008;8.390;2022-08-06T07:01:43;22.20;99.90
27128;DHT22;14660;49.008;8.390;2022-08-06T07:04:13;22.10;99.90
27128;DHT22;14660;49.008;8.390;2022-08-06T07:06:41;22.20;99.90
27128;DHT22;14660;49.008;8.390;2022-08-06T07:09:21;22.10;99.90
27128;DHT22;14660;49.008;8.390;2022-08-06T07:11:51;22.10;99.90
27128;DHT22;14660;49.008;8.390;2022-08-06T07:14:20;22.00;99.90
27128;DHT22;14660;49.008;8.390;2022-08-06T07:16:48;22.10;99.90
27128;DHT22;14660;49.008;8.390;2022-08-06T07:19:18;22.20;99.90
27128;DHT22;14660;49.008;8.390;2022-08-06T07:21:46;22.40;99.90
27128;DHT22;14660;49.008;8.390;2022-08-06T07:24:15;22.60;99.90
27128;DHT22;14660;49.008;8.390;2022-08-06T07:26:45;22.60;99.90
27128;DHT22;14660;49.008;8.390;2022-08-06T07:29:12;22.40;99.90
27128;DHT22;14660;49.008;8.390;2022-08-06T07:31:40;22.60;99.90
27128;DHT22;14660;49.008;8.390;2022-08-06T07:34:09;22.70;99.90
27128;DHT22;14660;49.008;8.390;2022-08-06T07:36:44;22.70;99.90
27128;DHT22;14660;49.008;8.390;2022-08-06T07:39:17;22.90;99.90
27128;DHT22;14660;49.008;8.390;2022-08-06T07:41:47;23.00;99.90
27128;DHT22;14660;49.008;8.390;2022-08-06T07:44:13;23.00;99.90
27128;DHT22;14660;49.008;8.390;2022-08-06T07:46:42;23.10;99.90
27128;DHT22;14660;49.008;8.390;2022-08-06T07:49:11;23.00;99.90
27128;DHT22;14660;49.008;8.390;2022-08-06T07:51:40;23.00;99.90
27128;DHT22;14660;49.008;8.390;2022-08-06T07:54:10;23.10;99.90
27128;DHT22;14660;49.008;8.390;2022-08-06T07:56:40;23.10;99.90
27128;DHT22;14660;49.008;8.390;2022-08-06T07:59:08;23.20;99.90
27128;DHT22;14660;49.008;8.390;2022-08-06T08:01:38;23.30;99.90
27128;DHT22;14660;49.008;8.390;2022-08-06T08:04:07;23.10;99.90
27128;DHT22;14660;49.008;8.390;2022-08-06T08:06:54;23.30;99.90
27128;DHT22;14660;49.008;8.390;2022-08-06T08:09:23;23.40;99.90
27128;DHT22;14660;49.008;8.390;2022-08-06T08:11:51;23.50;99.90
27128;DHT22;14660;49.008;8.390;2022-08-06T08:14:20;23.60;99.90
27128;DHT22;14660;49.008;8.390;2022-08-06T08:16:47;23.70;99.90
27128;DHT22;14660;49.008;8.390;2022-08-06T08:19:32;23.80;99.90
27128;DHT22;14660;49.008;8.390;2022-08-06T08:22:18;24.00;99.90
27128;DHT22;14660;49.008;8.390;2022-08-06T08:24:47;24.10;99.90
27128;DHT22;14660;49.008;8.390;2022-08-06T08:27:14;24.00;99.90
27128;DHT22;14660;49.008;8.390;2022-08-06T08:29:42;24.00;99.90
27128;DHT22;14660;49.008;8.390;2022-08-06T08:32:09;23.90;99.90
27128;DHT22;14660;49.008;8.390;2022-08-06T08:34:36;23.60;99.90
27128;DHT22;14660;49.008;8.390;2022-08-06T08:37:03;23.70;99.90
27128;DHT22;14660;49.008;8.390;2022-08-06T08:39:30;23.70;99.90
27128;DHT22;14660;49.008;8.390;2022-08-06T08:42:18;23.80;99.90
27128;DHT22;14660;49.008;8.390;2022-08-06T08:44:46;23.90;99.90
27128;DHT22;14660;49.008;8.390;2022-08-06T08:47:14;24.00;99.90
27128;DHT22;14660;49.008;8.390;2022-08-06T08:50:02;24.20;99.90
27128;DHT22;14660;49.008;8.390;2022-08-06T08:52:33;24.00;99.90
27128;DHT22;14660;49.008;8.390;2022-08-06T08:55:06;24.00;99.90
27128;DHT22;14660;49.008;8.390;2022-08-06T08:57:33;23.90;99.90
27128;DHT22;14660;49.008;8.390;2022-08-06T09:00:01;24.10;99.90
27128;DHT22;14660;49.008;8.390;2022-08-06T09:02:29;24.20;99.90
27128;DHT22;14660;49.008;8.390;2022-08-06T09:04:56;24.30;99.90
27128;DHT22;14660;49.008;8.390;2022-08-06T09:07:24;24.30;99.90
27128;DHT22;14660;49.008;8.390;2022-08-06T09:09:53;24.20;99.90
27128;DHT22;14660;49.008;8.390;2022-08-06T09:12:21;24.10;99.90
27128;DHT22;14660;49.008;8.390;2022-08-06T09:14:49;24.00;99.90
27128;DHT22;14660;49.008;8.390;2022-08-06T09:17:14;24.20;99.90
27128;DHT22;14660;49.008;8.390;2022-08-06T09:19:42;24.40;99.90
27128;DHT22;14660;49.008;8.390;2022-08-06T09:22:09;24.50;99.90
27128;DHT22;14660;49.008;8.390;2022-08-06T09:24:37;24.70;99.90
27128;DHT22;14660;49.008;8.390;2022-08-06T09:27:21;24.80;99.70
27128;DHT22;14660;49.008;8.390;2022-08-06T09:29:58;24.90;99.40
27128;DHT22;14660;49.008;8.390;2022-08-06T09:32:43;24.80;99.10
27128;DHT22;14660;49.008;8.390;2022-08-06T09:35:28;24.70;99.90
27128;DHT22;14660;49.008;8.390;2022-08-06T09:38:07;24.60;99.90
27128;DHT22;14660;49.008;8.390;2022-08-06T09:40:36;24.60;99.80
27128;DHT22;14660;49.008;8.390;2022-08-06T09:43:02;24.70;99.80
27128;DHT22;14660;49.008;8.390;2022-08-06T09:45:29;24.80;98.80
27128;DHT22;14660;49.008;8.390;2022-08-06T09:48:07;24.70;99.10
27128;DHT22;14660;49.008;8.390;2022-08-06T09:50:55;24.50;99.40
27128;DHT22;14660;49.008;8.390;2022-08-06T09:53:23;24.60;99.40
27128;DHT22;14660;49.008;8.390;2022-08-06T09:55:50;24.50;99.30
27128;DHT22;14660;49.008;8.390;2022-08-06T09:58:35;24.70;99.70
27128;DHT22;14660;49.008;8.390;2022-08-06T10:01:20;24.90;98.80
27128;DHT22;14660;49.008;8.390;2022-08-06T10:03:49;24.90;99.70
27128;DHT22;14660;49.008;8.390;2022-08-06T10:06:17;24.80;98.90
27128;DHT22;14660;49.008;8.390;2022-08-06T10:09:06;24.70;98.70
27128;DHT22;14660;49.008;8.390;2022-08-06T10:11:39;24.50;99.00
27128;DHT22;14660;49.008;8.390;2022-08-06T10:17:17;24.90;98.10
27128;DHT22;14660;49.008;8.390;2022-08-06T10:22:33;24.70;98.60
27128;DHT22;14660;49.008;8.390;2022-08-06T10:25:02;24.70;98.10
27128;DHT22;14660;49.008;8.390;2022-08-06T10:27:33;24.90;98.00
27128;DHT22;14660;49.008;8.390;2022-08-06T10:30:06;24.80;97.80
27128;DHT22;14660;49.008;8.390;2022-08-06T10:35:36;24.70;97.60
27128;DHT22;14660;49.008;8.390;2022-08-06T10:38:08;24.70;98.10
27128;DHT22;14660;49.008;8.390;2022-08-06T10:40:43;24.90;97.60
27128;DHT22;14660;49.008;8.390;2022-08-06T10:43:10;24.90;97.10
27128;DHT22;14660;49.008;8.390;2022-08-06T10:45:38;24.70;97.00
27128;DHT22;14660;49.008;8.390;2022-08-06T10:48:06;24.70;97.30
27128;DHT22;14660;49.008;8.390;2022-08-06T10:50:34;24.80;97.00
27128;DHT22;14660;49.008;8.390;2022-08-06T10:53:01;25.00;96.80
27128;DHT22;14660;49.008;8.390;2022-08-06T10:55:30;24.70;96.40
27128;DHT22;14660;49.008;8.390;2022-08-06T10:57:58;24.70;96.60
27128;DHT22;14660;49.008;8.390;2022-08-06T11:00:25;24.60;96.80
27128;DHT22;14660;49.008;8.390;2022-08-06T11:03:16;24.70;96.90
27128;DHT22;14660;49.008;8.390;2022-08-06T11:05:44;24.70;96.00
27128;DHT22;14660;49.008;8.390;2022-08-06T11:11:51;24.30;96.20
27128;DHT22;14660;49.008;8.390;2022-08-06T11:14:24;24.30;96.60
27128;DHT22;14660;49.008;8.390;2022-08-06T11:16:56;24.60;96.40
27128;DHT22;14660;49.008;8.390;2022-08-06T11:19:47;24.70;96.30
27128;DHT22;14660;49.008;8.390;2022-08-06T11:22:38;24.70;96.30
27128;DHT22;14660;49.008;8.390;2022-08-06T11:25:14;24.60;95.80
27128;DHT22;14660;49.008;8.390;2022-08-06T11:27:58;24.60;95.80
27128;DHT22;14660;49.008;8.390;2022-08-06T11:36:26;24.70;96.30
27128;DHT22;14660;49.008;8.390;2022-08-06T11:39:12;24.70;95.40
27128;DHT22;14660;49.008;8.390;2022-08-06T11:44:33;24.80;95.30
27128;DHT22;14660;49.008;8.390;2022-08-06T11:47:19;24.90;95.10
27128;DHT22;14660;49.008;8.390;2022-08-06T11:49:50;25.00;94.60
27128;DHT22;14660;49.008;8.390;2022-08-06T11:55:03;24.90;94.90
27128;DHT22;14660;49.008;8.390;2022-08-06T11:57:33;24.90;95.30
27128;DHT22;14660;49.008;8.390;2022-08-06T12:00:19;25.10;95.40
27128;DHT22;14660;49.008;8.390;2022-08-06T12:02:52;25.10;95.20
27128;DHT22;14660;49.008;8.390;2022-08-06T12:08:24;25.10;94.90
27128;DHT22;14660;49.008;8.390;2022-08-06T12:11:28;25.20;94.60
27128;DHT22;14660;49.008;8.390;2022-08-06T12:13:58;25.30;94.30
27128;DHT22;14660;49.008;8.390;2022-08-06T12:16:33;25.20;94.10
27128;DHT22;14660;49.008;8.390;2022-08-06T12:19:04;25.00;94.10
27128;DHT22;14660;49.008;8.390;2022-08-06T12:21:34;25.00;93.80
27128;DHT22;14660;49.008;8.390;2022-08-06T12:24:03;25.00;94.10
27128;DHT22;14660;49.008;8.390;2022-08-06T12:26:37;25.10;94.30
27128;DHT22;14660;49.008;8.390;2022-08-06T12:29:06;25.10;94.20
27128;DHT22;14660;49.008;8.390;2022-08-06T12:31:35;25.20;93.90
27128;DHT22;14660;49.008;8.390;2022-08-06T12:34:02;25.10;94.10
27128;DHT22;14660;49.008;8.390;2022-08-06T12:36:32;25.30;93.80
27128;DHT22;14660;49.008;8.390;2022-08-06T12:39:03;25.30;94.10
27128;DHT22;14660;49.008;8.390;2022-08-06T12:41:39;25.20;94.00
27128;DHT22;14660;49.008;8.390;2022-08-06T12:44:08;25.20;94.40
27128;DHT22;14660;49.008;8.390;2022-08-06T12:46:35;25.20;93.50
27128;DHT22;14660;49.008;8.390;2022-08-06T12:49:01;25.30;93.90
27128;DHT22;14660;49.008;8.390;2022-08-06T12:51:28;25.30;93.80
27128;DHT22;14660;49.008;8.390;2022-08-06T12:54:04;25.30;93.60
27128;DHT22;14660;49.008;8.390;2022-08-06T12:56:33;25.30;93.50
27128;DHT22;14660;49.008;8.390;2022-08-06T12:59:05;25.40;93.50
27128;DHT22;14660;49.008;8.390;2022-08-06T13:01:35;25.40;93.80
27128;DHT22;14660;49.008;8.390;2022-08-06T13:04:06;25.60;93.70
27128;DHT22;14660;49.008;8.390;2022-08-06T13:06:33;25.60;93.30
27128;DHT22;14660;49.008;8.390;2022-08-06T13:09:01;25.60;93.10
27128;DHT22;14660;49.008;8.390;2022-08-06T13:11:32;25.60;93.10
27128;DHT22;14660;49.008;8.390;2022-08-06T13:14:08;25.60;93.10
27128;DHT22;14660;49.008;8.390;2022-08-06T13:16:40;25.50;92.70
27128;DHT22;14660;49.008;8.390;2022-08-06T13:19:11;25.30;92.80
27128;DHT22;14660;49.008;8.390;2022-08-06T13:21:39;25.30;93.20
27128;DHT22;14660;49.008;8.390;2022-08-06T13:24:07;25.40;93.00
27128;DHT22;14660;49.008;8.390;2022-08-06T13:26:50;25.40;92.90
27128;DHT22;14660;49.008;8.390;2022-08-06T13:29:22;25.40;92.60
27128;DHT22;14660;49.008;8.390;2022-08-06T13:32:10;25.40;92.60
27128;DHT22;14660;49.008;8.390;2022-08-06T13:34:48;25.40;92.60
27128;DHT22;14660;49.008;8.390;2022-08-06T13:37:15;25.40;92.70
27128;DHT22;14660;49.008;8.390;2022-08-06T13:39:52;25.50;92.60
27128;DHT22;14660;49.008;8.390;2022-08-06T13:42:19;25.60;92.40
27128;DHT22;14660;49.008;8.390;2022-08-06T13:44:46;25.70;92.30
27128;DHT22;14660;49.008;8.390;2022-08-06T13:47:13;25.70;91.90
27128;DHT22;14660;49.008;8.390;2022-08-06T13:49:48;25.70;91.80
27128;DHT22;14660;49.008;8.390;2022-08-06T13:52:16;25.70;91.80
27128;DHT22;14660;49.008;8.390;2022-08-06T13:54:43;25.70;91.70
27128;DHT22;14660;49.008;8.390;2022-08-06T13:57:10;25.60;91.80
27128;DHT22;14660;49.008;8.390;2022-08-06T13:59:37;25.60;92.10
27128;DHT22;14660;49.008;8.390;2022-08-06T14:02:04;25.60;92.10
27128;DHT22;14660;49.008;8.390;2022-08-06T14:04:32;25.60;92.00
27128;DHT22;14660;49.008;8.390;2022-08-06T14:06:59;25.60;92.20
27128;DHT22;14660;49.008;8.390;2022-08-06T14:09:27;25.70;91.50
27128;DHT22;14660;49.008;8.390;2022-08-06T14:12:00;25.70;91.80
27128;DHT22;14660;49.008;8.390;2022-08-06T14:14:33;25.70;91.40
27128;DHT22;14660;49.008;8.390;2022-08-06T14:16:59;25.60;91.60
27128;DHT22;14660;49.008;8.390;2022-08-06T14:19:27;25.60;91.90
27128;DHT22;14660;49.008;8.390;2022-08-06T14:21:55;25.70;91.70
27128;DHT22;14660;49.008;8.390;2022-08-06T14:24:24;25.80;91.40
27128;DHT22;14660;49.008;8.390;2022-08-06T14:26:49;25.80;91.50
27128;DHT22;14660;49.008;8.390;2022-08-06T14:29:16;25.80;91.30
27128;DHT22;14660;49.008;8.390;2022-08-06T14:31:43;25.80;91.40
27128;DHT22;14660;49.008;8.390;2022-08-06T14:34:10;25.90;91.30
27128;DHT22;14660;49.008;8.390;2022-08-06T14:36:36;25.90;91.10
27128;DHT22;14660;49.008;8.390;2022-08-06T14:39:04;25.90;91.30
27128;DHT22;14660;49.008;8.390;2022-08-06T14:41:31;25.80;90.70
27128;DHT22;14660;49.008;8.390;2022-08-06T14:44:16;25.90;90.70
27128;DHT22;14660;49.008;8.390;2022-08-06T14:47:02;25.80;90.40
27128;DHT22;14660;49.008;8.390;2022-08-06T14:49:30;25.80;90.50
27128;DHT22;14660;49.008;8.390;2022-08-06T14:51:58;25.90;90.50
27128;DHT22;14660;49.008;8.390;2022-08-06T14:54:25;25.90;90.50
27128;DHT22;14660;49.008;8.390;2022-08-06T14:56:52;25.90;90.30
27128;DHT22;14660;49.008;8.390;2022-08-06T14:59:30;25.90;91.00
27128;DHT22;14660;49.008;8.390;2022-08-06T15:01:58;25.90;90.40
27128;DHT22;14660;49.008;8.390;2022-08-06T15:04:25;25.90;91.20
27128;DHT22;14660;49.008;8.390;2022-08-06T15:06:52;25.90;90.30
27128;DHT22;14660;49.008;8.390;2022-08-06T15:09:24;26.00;90.10
27128;DHT22;14660;49.008;8.390;2022-08-06T15:11:53;25.90;89.70
27128;DHT22;14660;49.008;8.390;2022-08-06T15:14:20;26.00;90.00
27128;DHT22;14660;49.008;8.390;2022-08-06T15:16:46;26.00;89.70
27128;DHT22;14660;49.008;8.390;2022-08-06T15:19:12;26.00;89.40
27128;DHT22;14660;49.008;8.390;2022-08-06T15:21:39;26.00;90.00
27128;DHT22;14660;49.008;8.390;2022-08-06T15:24:05;26.00;89.30
27128;DHT22;14660;49.008;8.390;2022-08-06T15:26:33;26.00;88.90
27128;DHT22;14660;49.008;8.390;2022-08-06T15:29:01;25.90;89.00
27128;DHT22;14660;49.008;8.390;2022-08-06T15:31:27;26.00;88.60
27128;DHT22;14660;49.008;8.390;2022-08-06T15:33:55;25.90;89.20
27128;DHT22;14660;49.008;8.390;2022-08-06T15:36:25;26.00;88.60
27128;DHT22;14660;49.008;8.390;2022-08-06T15:38:52;25.90;88.40
27128;DHT22;14660;49.008;8.390;2022-08-06T15:41:24;25.90;89.00
27128;DHT22;14660;49.008;8.390;2022-08-06T15:43:51;25.90;88.50
27128;DHT22;14660;49.008;8.390;2022-08-06T15:46:18;26.00;88.60
27128;DHT22;14660;49.008;8.390;2022-08-06T15:48:46;25.90;88.40
27128;DHT22;14660;49.008;8.390;2022-08-06T15:51:15;25.80;88.30
27128;DHT22;14660;49.008;8.390;2022-08-06T15:53:43;25.80;88.10
27128;DHT22;14660;49.008;8.390;2022-08-06T15:56:10;25.70;88.60
27128;DHT22;14660;49.008;8.390;2022-08-06T15:58:36;25.70;89.00
27128;DHT22;14660;49.008;8.390;2022-08-06T16:01:03;25.70;89.10
27128;DHT22;14660;49.008;8.390;2022-08-06T16:03:30;25.70;87.60
27128;DHT22;14660;49.008;8.390;2022-08-06T16:05:58;25.70;87.70
27128;DHT22;14660;49.008;8.390;2022-08-06T16:08:25;25.70;87.70
27128;DHT22;14660;49.008;8.390;2022-08-06T16:10:53;25.70;87.90
27128;DHT22;14660;49.008;8.390;2022-08-06T16:13:20;25.70;87.50
27128;DHT22;14660;49.008;8.390;2022-08-06T16:15:48;25.70;87.80
27128;DHT22;14660;49.008;8.390;2022-08-06T16:18:20;25.70;88.20
27128;DHT22;14660;49.008;8.390;2022-08-06T16:20:48;25.70;88.80
27128;DHT22;14660;49.008;8.390;2022-08-06T16:23:17;25.70;91.60
27128;DHT22;14660;49.008;8.390;2022-08-06T16:25:44;25.70;90.00
27128;DHT22;14660;49.008;8.390;2022-08-06T16:28:11;25.70;90.10
27128;DHT22;14660;49.008;8.390;2022-08-06T16:30:38;25.70;91.30
27128;DHT22;14660;49.008;8.390;2022-08-06T16:33:05;25.70;91.50
27128;DHT22;14660;49.008;8.390;2022-08-06T16:35:32;25.70;89.60
27128;DHT22;14660;49.008;8.390;2022-08-06T16:38:00;25.60;90.60
27128;DHT22;14660;49.008;8.390;2022-08-06T16:40:28;25.50;90.30
27128;DHT22;14660;49.008;8.390;2022-08-06T16:42:57;25.50;90.10
27128;DHT22;14660;49.008;8.390;2022-08-06T16:45:23;25.40;89.90
27128;DHT22;14660;49.008;8.390;2022-08-06T16:47:55;25.30;90.20
27128;DHT22;14660;49.008;8.390;2022-08-06T16:50:26;25.30;90.10
27128;DHT22;14660;49.008;8.390;2022-08-06T16:52:53;25.20;89.40
27128;DHT22;14660;49.008;8.390;2022-08-06T16:55:20;25.20;90.40